Time;durP1;ratioP1;P1;durP2;ratioP2;P2;SDS_P1;SDS_P2;PMS_P1;PMS_P2;Temp;Humidity;BMP_temperature;BMP_pressure;BME280_temperature;BME280_humidity;BME280_pressure;Samples;Min_cycle;Max_cycle;Signal;HPM_P1;HPM_P2
2023/11/04 00:00:49;;;;;;;3.22;1.65;;;16.80;69.60;;;;;;5020061;28;20084;-57
2023/11/04 00:03:16;;;;;;;2.78;1.50;;;16.80;69.60;;;;;;5021757;28;20064;-54
2023/11/04 00:05:41;;;;;;;3.20;1.55;;;16.80;69.60;;;;;;5018206;28;20116;-57
2023/11/04 00:08:07;;;;;;;3.05;1.70;;;16.80;69.60;;;;;;5016814;28;20113;-55
2023/11/04 00:10:32;;;;;;;2.03;1.30;;;16.80;69.60;;;;;;5020758;28;20029;-58
2023/11/04 00:12:58;;;;;;;3.10;1.27;;;16.80;69.60;;;;;;5020684;28;20144;-57
2023/11/04 00:15:24;;;;;;;2.00;1.50;;;16.80;69.60;;;;;;5020097;28;20041;-53
2023/11/04 00:17:49;;;;;;;3.45;1.95;;;16.80;69.60;;;;;;5021455;28;20038;-52
2023/11/04 00:20:15;;;;;;;2.55;1.35;;;16.80;69.60;;;;;;5021592;28;20036;-55
2023/11/04 00:22:40;;;;;;;2.20;1.48;;;16.80;69.60;;;;;;5020598;28;20117;-57
2023/11/04 00:25:06;;;;;;;2.28;1.85;;;16.80;69.60;;;;;;5018309;28;20113;-56
2023/11/04 00:27:32;;;;;;;2.40;1.30;;;16.80;69.60;;;;;;5020307;28;20030;-62
2023/11/04 00:29:58;;;;;;;4.38;1.80;;;16.80;69.50;;;;;;5019678;28;20036;-58
2023/11/04 00:32:24;;;;;;;1.70;1.30;;;16.70;69.50;;;;;;5021066;28;20041;-56
2023/11/04 00:34:50;;;;;;;2.97;1.52;;;16.80;69.60;;;;;;5027458;28;20085;-57
2023/11/04 00:37:15;;;;;;;2.17;1.33;;;16.80;69.60;;;;;;5016192;28;20033;-55
2023/11/04 00:39:41;;;;;;;1.92;1.42;;;16.80;69.50;;;;;;5019038;28;20049;-58
2023/11/04 00:42:06;;;;;;;1.92;1.10;;;16.80;69.50;;;;;;5017262;28;20033;-54
2023/11/04 00:44:33;;;;;;;1.92;1.30;;;16.80;69.50;;;;;;5018610;28;20079;-57
2023/11/04 00:46:59;;;;;;;2.08;1.10;;;16.70;69.50;;;;;;5019916;28;20053;-57
2023/11/04 00:49:25;;;;;;;2.33;1.23;;;16.80;69.50;;;;;;5021122;28;20125;-58
2023/11/04 00:51:50;;;;;;;3.63;1.33;;;16.80;69.50;;;;;;5019745;28;20041;-56
2023/11/04 00:54:16;;;;;;;2.65;1.40;;;16.80;69.50;;;;;;5020455;28;20483;-55
2023/11/04 00:56:41;;;;;;;2.67;1.10;;;16.80;69.60;;;;;;5018782;28;20038;-57
2023/11/04 00:59:08;;;;;;;2.05;1.00;;;16.70;69.50;;;;;;5019525;28;20044;-57
2023/11/04 01:01:33;;;;;;;1.90;1.42;;;16.80;69.50;;;;;;5015891;28;20022;-58
2023/11/04 01:03:59;;;;;;;2.78;1.40;;;16.70;69.50;;;;;;5019696;28;20100;-53
2023/11/04 01:06:24;;;;;;;2.25;1.02;;;16.80;69.50;;;;;;5014024;28;20033;-54
2023/11/04 01:08:50;;;;;;;2.35;1.48;;;16.70;69.50;;;;;;5018415;28;20136;-58
2023/11/04 01:11:17;;;;;;;2.90;1.17;;;16.70;69.50;;;;;;5017353;28;20490;-55
2023/11/04 01:13:43;;;;;;;1.92;1.05;;;16.80;69.50;;;;;;5019161;28;20068;-55
2023/11/04 01:16:09;;;;;;;2.15;1.30;;;16.70;69.50;;;;;;5018783;28;20036;-57
2023/11/04 01:18:35;;;;;;;2.03;1.00;;;16.80;69.50;;;;;;5020068;28;20089;-53
2023/11/04 01:21:00;;;;;;;2.55;1.30;;;16.70;69.50;;;;;;5018483;28;20029;-57
2023/11/04 01:23:26;;;;;;;1.75;1.02;;;16.80;69.50;;;;;;5020514;28;20029;-57
2023/11/04 01:25:52;;;;;;;2.25;1.25;;;16.80;69.50;;;;;;5016494;28;20099;-58
2023/11/04 01:28:17;;;;;;;2.35;1.60;;;16.70;69.40;;;;;;5019709;28;20061;-58
2023/11/04 01:30:43;;;;;;;1.80;1.10;;;16.70;69.40;;;;;;5019200;28;20030;-59
2023/11/04 01:33:09;;;;;;;3.53;1.40;;;16.70;69.40;;;;;;5019769;28;20064;-56
2023/11/04 01:35:34;;;;;;;1.67;1.02;;;16.70;69.40;;;;;;5019179;28;20033;-55
2023/11/04 01:38:00;;;;;;;2.80;1.27;;;16.70;69.40;;;;;;5017467;28;20041;-58
2023/11/04 01:40:26;;;;;;;1.65;1.08;;;16.70;70.00;;;;;;5018641;28;20045;-56
2023/11/04 01:42:51;;;;;;;1.40;0.88;;;16.70;69.40;;;;;;5018677;28;20040;-56
2023/11/04 01:45:17;;;;;;;3.20;1.45;;;16.70;69.40;;;;;;5019120;28;20029;-55
2023/11/04 01:47:43;;;;;;;2.13;1.20;;;16.70;69.40;;;;;;5019742;28;20041;-55
2023/11/04 01:50:09;;;;;;;1.10;1.00;;;16.70;69.40;;;;;;5019065;28;20035;-58
2023/11/04 01:52:40;;;;;;;3.08;1.35;;;16.70;69.40;;;;;;5018064;28;20025;-55
2023/11/04 01:55:08;;;;;;;2.75;1.08;;;16.80;69.40;;;;;;5016359;28;20030;-57
2023/11/04 01:57:34;;;;;;;2.67;1.08;;;16.70;69.40;;;;;;5016537;28;20506;-56
2023/11/04 02:00:00;;;;;;;1.40;1.15;;;16.70;69.40;;;;;;5019114;28;20502;-57
2023/11/04 02:02:27;;;;;;;3.85;1.35;;;16.70;69.40;;;;;;5014354;28;20026;-55
2023/11/04 02:04:53;;;;;;;2.63;0.82;;;16.70;69.40;;;;;;5013360;28;20029;-52
2023/11/04 02:07:19;;;;;;;1.58;1.02;;;16.70;69.40;;;;;;5019211;28;20021;-51
2023/11/04 02:09:44;;;;;;;1.45;0.70;;;16.70;69.40;;;;;;5017435;28;20564;-56
2023/11/04 02:12:12;;;;;;;3.97;1.25;;;16.70;69.40;;;;;;5018796;28;20033;-57
2023/11/04 02:14:48;;;;;;;2.60;1.20;;;16.70;69.40;;;;;;5019886;28;20120;-56
2023/11/04 02:17:13;;;;;;;2.00;1.08;;;16.70;69.40;;;;;;5018461;28;20034;-55
2023/11/04 02:19:39;;;;;;;2.03;1.08;;;16.70;69.40;;;;;;5016388;28;20068;-59
2023/11/04 02:22:05;;;;;;;2.90;1.05;;;16.70;69.40;;;;;;5016353;28;20399;-57
2023/11/04 02:24:30;;;;;;;4.07;1.27;;;16.70;69.30;;;;;;5019000;28;20044;-54
2023/11/04 02:26:56;;;;;;;1.88;0.95;;;16.70;69.30;;;;;;5018725;28;20040;-58
2023/11/04 02:29:21;;;;;;;2.80;1.58;;;16.70;69.40;;;;;;5015420;28;20064;-55
2023/11/04 02:31:47;;;;;;;2.95;1.20;;;16.70;69.30;;;;;;5015888;28;20034;-54
2023/11/04 02:34:13;;;;;;;2.90;1.15;;;16.70;69.30;;;;;;5017745;28;20029;-55
2023/11/04 02:36:38;;;;;;;2.65;1.15;;;16.70;69.30;;;;;;5017363;28;20117;-57
2023/11/04 02:39:04;;;;;;;2.58;0.98;;;16.70;69.30;;;;;;5016483;28;20048;-59
2023/11/04 02:41:29;;;;;;;1.92;0.90;;;16.70;69.30;;;;;;5018847;28;20068;-59
2023/11/04 02:43:55;;;;;;;1.30;0.85;;;16.70;69.30;;;;;;5018845;28;20443;-57
2023/11/04 02:46:20;;;;;;;2.08;0.73;;;16.70;69.30;;;;;;5013243;28;20148;-53
2023/11/04 02:48:46;;;;;;;1.92;1.27;;;16.70;69.30;;;;;;5018652;28;20069;-57
2023/11/04 02:51:11;;;;;;;2.40;1.05;;;16.70;69.30;;;;;;5017445;28;20040;-58
2023/11/04 02:53:37;;;;;;;3.88;1.17;;;16.70;69.30;;;;;;5019560;28;20371;-57
2023/11/04 02:56:03;;;;;;;3.17;1.20;;;16.70;69.30;;;;;;5018628;28;20025;-59
2023/11/04 02:58:28;;;;;;;2.58;1.20;;;16.70;69.30;;;;;;5010174;28;20057;-57
2023/11/04 03:00:54;;;;;;;2.42;1.23;;;16.70;69.30;;;;;;5018589;28;20037;-55
2023/11/04 03:03:19;;;;;;;3.75;1.05;;;16.70;69.30;;;;;;5018543;28;20041;-56
2023/11/04 03:05:45;;;;;;;1.40;0.70;;;16.70;69.30;;;;;;5015904;28;20036;-54
2023/11/04 03:08:10;;;;;;;1.08;0.60;;;16.70;69.30;;;;;;5017078;28;20030;-57
2023/11/04 03:10:36;;;;;;;3.15;1.00;;;16.70;69.30;;;;;;5018823;28;20034;-57
2023/11/04 03:13:01;;;;;;;1.00;0.70;;;16.60;69.20;;;;;;5018132;28;20030;-58
2023/11/04 03:15:27;;;;;;;2.33;1.35;;;16.70;69.30;;;;;;5017649;28;20578;-55
2023/11/04 03:17:52;;;;;;;1.25;0.98;;;16.70;69.30;;;;;;5018184;28;20057;-55
2023/11/04 03:20:19;;;;;;;2.08;0.80;;;16.70;69.30;;;;;;5017096;28;20065;-55
2023/11/04 03:22:45;;;;;;;1.05;0.80;;;16.70;69.20;;;;;;5018385;28;20498;-55
2023/11/04 03:25:12;;;;;;;1.88;0.85;;;16.60;69.20;;;;;;5017365;28;20057;-55
2023/11/04 03:27:37;;;;;;;3.22;0.80;;;16.70;69.30;;;;;;5016086;28;20112;-53
2023/11/04 03:30:04;;;;;;;2.92;1.10;;;16.70;69.30;;;;;;5012689;28;20193;-55
2023/11/04 03:32:30;;;;;;;1.75;1.00;;;16.70;69.20;;;;;;5014218;28;20112;-56
2023/11/04 03:35:05;;;;;;;1.48;0.60;;;16.70;69.20;;;;;;5000419;28;20037;-55
2023/11/04 03:37:34;;;;;;;1.83;1.25;;;16.70;69.20;;;;;;4991116;28;20037;-57
2023/11/04 03:40:03;;;;;;;2.42;1.10;;;16.70;69.20;;;;;;5017586;23;20125;-57
2023/11/04 03:42:28;;;;;;;1.50;0.80;;;16.70;69.20;;;;;;4965350;28;20499;-57
2023/11/04 03:44:54;;;;;;;2.47;0.98;;;16.70;69.30;;;;;;4977075;28;20054;-56
2023/11/04 03:47:20;;;;;;;2.28;1.13;;;16.70;69.20;;;;;;4976014;28;20019;-57
2023/11/04 03:49:45;;;;;;;2.45;0.70;;;16.60;69.10;;;;;;4979087;28;20033;-54
2023/11/04 03:52:11;;;;;;;2.25;0.90;;;16.60;69.10;;;;;;4980155;28;20077;-55
2023/11/04 03:54:36;;;;;;;3.10;0.90;;;16.60;69.20;;;;;;4995451;28;20110;-58
2023/11/04 03:57:02;;;;;;;1.75;1.00;;;16.60;69.20;;;;;;5001581;28;20181;-53
2023/11/04 03:59:28;;;;;;;4.05;1.40;;;16.60;69.20;;;;;;5006257;28;20026;-56
2023/11/04 04:01:53;;;;;;;0.73;0.60;;;16.60;69.20;;;;;;5002321;28;20045;-57
2023/11/04 04:04:19;;;;;;;2.83;0.93;;;16.60;69.20;;;;;;5004091;28;20030;-56
2023/11/04 04:06:44;;;;;;;1.70;0.80;;;16.60;69.20;;;;;;4998806;28;20057;-54
2023/11/04 04:09:10;;;;;;;2.25;0.68;;;16.60;69.10;;;;;;4998138;28;20029;-55
2023/11/04 04:11:36;;;;;;;1.48;0.80;;;16.60;69.20;;;;;;5000472;28;20026;-57
2023/11/04 04:14:01;;;;;;;2.10;1.02;;;16.60;69.10;;;;;;4999224;28;20109;-57
2023/11/04 04:16:27;;;;;;;2.35;1.15;;;16.60;69.20;;;;;;4998902;28;20042;-56
2023/11/04 04:18:53;;;;;;;2.47;1.02;;;16.60;69.20;;;;;;5000979;28;20037;-56
2023/11/04 04:21:18;;;;;;;2.30;0.70;;;16.60;69.10;;;;;;4999091;28;20034;-57
2023/11/04 04:23:44;;;;;;;1.80;0.63;;;16.60;69.10;;;;;;4997693;28;20041;-55
2023/11/04 04:26:16;;;;;;;2.10;0.82;;;16.60;69.10;;;;;;5003979;28;20057;-58
2023/11/04 04:28:41;;;;;;;1.08;0.70;;;16.60;69.10;;;;;;5003733;28;20788;-57
2023/11/04 04:31:07;;;;;;;2.22;1.00;;;16.60;69.10;;;;;;4999322;28;20116;-56
2023/11/04 04:33:32;;;;;;;1.23;0.80;;;16.60;69.10;;;;;;5002169;28;20119;-57
2023/11/04 04:35:58;;;;;;;1.52;0.90;;;16.60;69.10;;;;;;4998365;28;20515;-57
2023/11/04 04:38:24;;;;;;;1.13;0.63;;;16.60;69.10;;;;;;4998184;28;20039;-57
2023/11/04 04:40:49;;;;;;;1.30;0.60;;;16.60;69.10;;;;;;4997449;28;20121;-57
2023/11/04 04:43:16;;;;;;;2.15;1.10;;;16.60;69.10;;;;;;4997449;28;20452;-59
2023/11/04 04:45:41;;;;;;;2.03;0.68;;;16.60;69.10;;;;;;4997520;28;20038;-58
2023/11/04 04:48:07;;;;;;;1.80;0.77;;;16.60;69.10;;;;;;4997485;28;20373;-58
2023/11/04 04:50:32;;;;;;;1.42;0.80;;;16.60;69.10;;;;;;5000623;28;20032;-55
2023/11/04 04:52:58;;;;;;;1.42;0.70;;;16.60;69.10;;;;;;5000375;28;20372;-57
2023/11/04 04:55:23;;;;;;;2.53;0.90;;;16.60;69.10;;;;;;5002981;28;21646;-52
2023/11/04 04:57:49;;;;;;;1.00;0.82;;;16.60;69.10;;;;;;5003518;28;20149;-58
2023/11/04 05:00:15;;;;;;;1.58;0.80;;;16.60;69.10;;;;;;5000920;28;20112;-54
2023/11/04 05:02:42;;;;;;;1.10;0.90;;;16.60;69.10;;;;;;5001999;28;20042;-55
2023/11/04 05:05:10;;;;;;;1.20;0.80;;;16.60;69.10;;;;;;4996825;28;20034;-55
2023/11/04 05:07:35;;;;;;;3.50;0.88;;;16.60;69.10;;;;;;4997413;28;20109;-58
2023/11/04 05:10:01;;;;;;;0.95;0.70;;;16.60;69.10;;;;;;4997207;28;20112;-56
2023/11/04 05:12:27;;;;;;;1.17;0.70;;;16.60;69.10;;;;;;5008130;28;20425;-56
2023/11/04 05:14:52;;;;;;;1.63;0.70;;;16.60;69.10;;;;;;4993018;28;20034;-56
2023/11/04 05:17:18;;;;;;;1.23;0.80;;;16.60;69.00;;;;;;5006432;28;20046;-54
2023/11/04 05:19:43;;;;;;;0.98;0.50;;;16.60;69.10;;;;;;4993051;28;20045;-54
2023/11/04 05:22:09;;;;;;;1.15;0.85;;;16.50;69.10;;;;;;5008095;28;20510;-55
2023/11/04 05:24:35;;;;;;;1.95;1.52;;;16.60;69.10;;;;;;4991401;28;20435;-54
2023/11/04 05:27:01;;;;;;;1.23;0.73;;;16.60;69.10;;;;;;5007092;28;20030;-55
2023/11/04 05:29:27;;;;;;;1.55;0.80;;;16.60;69.00;;;;;;4996482;28;20504;-53
2023/11/04 05:31:52;;;;;;;2.58;0.70;;;16.60;69.00;;;;;;5010323;28;20133;-55
2023/11/04 05:34:18;;;;;;;1.35;0.75;;;16.60;69.10;;;;;;4993203;28;20038;-58
2023/11/04 05:36:44;;;;;;;1.42;0.70;;;16.50;69.00;;;;;;5010866;28;20117;-59
2023/11/04 05:39:12;;;;;;;1.45;0.80;;;16.60;69.00;;;;;;4998365;28;20137;-57
2023/11/04 05:41:39;;;;;;;1.55;0.80;;;16.60;69.00;;;;;;5000897;28;20104;-54
2023/11/04 05:44:05;;;;;;;1.13;0.70;;;16.50;68.90;;;;;;4998228;28;20069;-55
2023/11/04 05:46:30;;;;;;;1.65;0.50;;;16.60;69.10;;;;;;5012635;28;20076;-57
2023/11/04 05:48:56;;;;;;;1.63;0.60;;;16.60;69.00;;;;;;4997539;28;20038;-57
2023/11/04 05:51:25;;;;;;;1.17;0.50;;;16.50;69.00;;;;;;4996948;28;20026;-56
2023/11/04 05:53:51;;;;;;;1.52;0.77;;;16.50;69.00;;;;;;5000167;28;20038;-56
2023/11/04 05:56:17;;;;;;;1.48;0.93;;;16.60;69.10;;;;;;4999671;28;20038;-56
2023/11/04 05:58:43;;;;;;;2.35;0.65;;;16.50;69.00;;;;;;5002355;28;20068;-56
2023/11/04 06:01:09;;;;;;;1.50;0.80;;;16.60;69.10;;;;;;4999297;28;20034;-55
2023/11/04 06:03:34;;;;;;;1.60;0.57;;;16.50;69.00;;;;;;4998315;28;20038;-54
2023/11/04 06:06:00;;;;;;;0.93;0.57;;;16.50;69.00;;;;;;4997692;28;20092;-56
2023/11/04 06:08:25;;;;;;;0.95;0.70;;;16.50;69.00;;;;;;4996059;28;20045;-55
2023/11/04 06:10:51;;;;;;;9.93;0.82;;;16.50;69.00;;;;;;5013698;28;20083;-56
2023/11/04 06:13:16;;;;;;;1.00;0.47;;;16.50;69.00;;;;;;4996577;28;20752;-55
2023/11/04 06:15:42;;;;;;;0.60;0.50;;;16.60;69.10;;;;;;5000861;28;20037;-57
2023/11/04 06:18:08;;;;;;;1.00;0.47;;;16.50;68.90;;;;;;4994236;28;20266;-53
2023/11/04 06:20:33;;;;;;;1.40;0.60;;;16.50;68.90;;;;;;5001803;28;20022;-55
2023/11/04 06:22:59;;;;;;;1.98;0.60;;;16.50;68.90;;;;;;4998204;28;20031;-56
2023/11/04 06:25:24;;;;;;;0.70;0.50;;;16.50;68.90;;;;;;5002526;28;20068;-55
2023/11/04 06:27:50;;;;;;;0.95;0.60;;;16.50;69.00;;;;;;4995842;28;20026;-55
2023/11/04 06:30:15;;;;;;;1.88;0.50;;;16.50;68.90;;;;;;5000576;28;20028;-57
2023/11/04 06:32:41;;;;;;;1.70;0.88;;;16.50;69.00;;;;;;4997097;28;20037;-55
2023/11/04 06:35:07;;;;;;;1.10;0.45;;;16.50;69.00;;;;;;4997948;28;20026;-58
2023/11/04 06:37:32;;;;;;;1.42;0.60;;;16.50;69.00;;;;;;5010772;28;20061;-58
2023/11/04 06:39:58;;;;;;;2.03;0.60;;;16.50;68.90;;;;;;4998726;28;20033;-58
2023/11/04 06:42:26;;;;;;;0.95;0.80;;;16.50;68.90;;;;;;4996403;28;20033;-55
2023/11/04 06:44:54;;;;;;;1.40;0.50;;;16.50;68.90;;;;;;4996943;28;20092;-55
2023/11/04 06:47:21;;;;;;;1.45;0.52;;;16.50;68.90;;;;;;4995505;28;20068;-52
2023/11/04 06:49:47;;;;;;;1.00;0.57;;;16.50;68.90;;;;;;4996219;28;20046;-56
2023/11/04 06:52:13;;;;;;;1.08;0.60;;;16.50;69.00;;;;;;5002633;28;20073;-55
2023/11/04 06:54:38;;;;;;;0.85;0.50;;;16.50;69.00;;;;;;4998519;28;20057;-56
2023/11/04 06:57:07;;;;;;;2.20;0.70;;;16.50;69.00;;;;;;4992885;28;20052;-58
2023/11/04 06:59:33;;;;;;;4.18;1.30;;;16.50;69.00;;;;;;5000799;28;20415;-57
2023/11/04 07:01:58;;;;;;;1.80;0.88;;;16.50;69.00;;;;;;4997208;28;20037;-55
2023/11/04 07:04:24;;;;;;;2.47;1.05;;;16.50;69.00;;;;;;4996234;28;20061;-55
2023/11/04 07:06:50;;;;;;;1.70;1.25;;;16.50;69.00;;;;;;4999059;28;20034;-56
2023/11/04 07:09:18;;;;;;;4.03;1.83;;;16.50;69.00;;;;;;5000922;28;20068;-54
2023/11/04 07:11:44;;;;;;;3.50;1.45;;;16.50;69.60;;;;;;4999793;28;20040;-53
2023/11/04 07:14:10;;;;;;;3.03;1.17;;;16.50;69.00;;;;;;4999077;28;20608;-56
2023/11/04 07:16:35;;;;;;;3.53;2.03;;;16.50;69.00;;;;;;5005080;28;20041;-54
2023/11/04 07:19:01;;;;;;;3.35;1.50;;;16.50;69.00;;;;;;4997161;28;20036;-57
2023/11/04 07:21:27;;;;;;;4.30;2.17;;;16.50;69.00;;;;;;5006542;28;20044;-57
2023/11/04 07:23:53;;;;;;;3.40;1.50;;;16.50;69.10;;;;;;5002680;28;20038;-57
2023/11/04 07:26:19;;;;;;;6.05;1.98;;;16.50;69.10;;;;;;4996322;28;20042;-56
2023/11/04 07:28:44;;;;;;;3.10;1.40;;;16.50;69.10;;;;;;5001734;28;20109;-56
2023/11/04 07:31:10;;;;;;;2.88;1.60;;;16.50;69.10;;;;;;4999919;28;20072;-54
2023/11/04 07:33:37;;;;;;;2.85;1.65;;;16.50;69.20;;;;;;5000132;28;20038;-57
2023/11/04 07:36:03;;;;;;;4.20;1.73;;;16.50;69.20;;;;;;4999475;28;20030;-56
2023/11/04 07:38:29;;;;;;;3.55;1.27;;;16.50;69.20;;;;;;5004100;28;20056;-53
2023/11/04 07:40:55;;;;;;;4.22;1.52;;;16.50;69.20;;;;;;5003794;28;20038;-56
2023/11/04 07:43:20;;;;;;;5.18;2.08;;;16.50;69.20;;;;;;5005157;28;20034;-56
2023/11/04 07:45:46;;;;;;;3.33;1.30;;;16.50;69.10;;;;;;5002832;28;20033;-55
2023/11/04 07:48:13;;;;;;;2.85;1.52;;;16.50;69.20;;;;;;4997395;28;20574;-55
2023/11/04 07:50:39;;;;;;;3.38;1.55;;;16.50;69.20;;;;;;5003712;28;20169;-54
2023/11/04 07:53:04;;;;;;;2.00;1.40;;;16.50;69.20;;;;;;5000909;28;20287;-54
2023/11/04 07:55:30;;;;;;;2.03;1.30;;;16.50;69.10;;;;;;4998456;28;20034;-55
2023/11/04 07:57:55;;;;;;;2.67;1.40;;;16.50;69.10;;;;;;5002070;28;20034;-55
2023/11/04 08:00:21;;;;;;;2.67;1.60;;;16.50;69.10;;;;;;5001187;28;20040;-54
2023/11/04 08:02:47;;;;;;;3.47;1.33;;;16.50;69.10;;;;;;5000433;28;20129;-53
2023/11/04 08:05:14;;;;;;;2.58;1.33;;;16.50;69.10;;;;;;4998248;28;20144;-55
2023/11/04 08:07:40;;;;;;;2.38;0.95;;;16.40;69.10;;;;;;5000871;28;20033;-54
2023/11/04 08:10:07;;;;;;;2.63;1.52;;;16.50;69.10;;;;;;5006102;28;20032;-56
2023/11/04 08:12:33;;;;;;;1.77;1.08;;;16.50;69.10;;;;;;5002624;28;20036;-55
2023/11/04 08:14:59;;;;;;;3.45;1.40;;;16.50;69.10;;;;;;5000661;28;20037;-54
2023/11/04 08:17:25;;;;;;;3.35;1.67;;;16.50;69.10;;;;;;4997636;28;20034;-60
2023/11/04 08:19:50;;;;;;;1.98;1.10;;;16.50;69.10;;;;;;5001076;28;20112;-56
2023/11/04 08:22:16;;;;;;;2.83;1.10;;;16.50;69.10;;;;;;5001457;28;20026;-58
2023/11/04 08:24:45;;;;;;;2.13;1.10;;;16.40;69.00;;;;;;4998853;28;20240;-54
2023/11/04 08:27:11;;;;;;;2.35;1.33;;;16.50;69.10;;;;;;4999550;28;20057;-53
2023/11/04 08:29:39;;;;;;;13.52;4.60;;;16.50;69.10;;;;;;5000111;28;20030;-61
2023/11/04 08:32:04;;;;;;;13.20;3.53;;;16.50;69.70;;;;;;4999773;28;20121;-56
2023/11/04 08:34:30;;;;;;;10.77;2.60;;;16.60;69.40;;;;;;4998458;28;20117;-55
2023/11/04 08:36:55;;;;;;;7.47;3.03;;;16.60;69.20;;;;;;5003888;28;20042;-56
2023/11/04 08:39:21;;;;;;;8.40;2.80;;;16.60;69.30;;;;;;5000909;28;20450;-56
2023/11/04 08:41:46;;;;;;;10.98;3.78;;;16.60;69.30;;;;;;5001123;28;20042;-55
2023/11/04 08:44:12;;;;;;;9.18;3.35;;;16.50;69.30;;;;;;5001591;28;20034;-53
2023/11/04 08:46:38;;;;;;;8.20;3.05;;;16.50;69.30;;;;;;4998279;28;20026;-53
2023/11/04 08:49:06;;;;;;;6.85;3.35;;;16.50;69.40;;;;;;4995386;28;20100;-57
2023/11/04 08:51:32;;;;;;;6.57;3.92;;;16.50;69.40;;;;;;5000260;28;20030;-57
2023/11/04 08:53:58;;;;;;;9.15;2.88;;;16.50;69.40;;;;;;4998703;28;20104;-56
2023/11/04 08:56:24;;;;;;;12.00;3.03;;;16.50;69.40;;;;;;4999211;28;20038;-56
2023/11/04 08:58:49;;;;;;;7.10;2.80;;;16.50;69.40;;;;;;4994530;28;20534;-55
2023/11/04 09:01:15;;;;;;;10.95;3.38;;;16.50;69.40;;;;;;4996012;28;20430;-58
2023/11/04 09:03:41;;;;;;;7.07;3.35;;;16.50;70.00;;;;;;4998260;28;20025;-54
2023/11/04 09:06:07;;;;;;;9.20;2.97;;;16.50;69.40;;;;;;4998615;28;20037;-57
2023/11/04 09:08:33;;;;;;;7.15;2.75;;;16.50;69.40;;;;;;5003123;28;20135;-56
2023/11/04 09:10:59;;;;;;;8.13;3.30;;;16.50;70.10;;;;;;4998201;28;20045;-56
2023/11/04 09:13:25;;;;;;;6.93;3.30;;;16.50;69.40;;;;;;4998887;28;20042;-56
2023/11/04 09:15:51;;;;;;;6.57;2.92;;;16.50;69.30;;;;;;4996959;28;20061;-56
2023/11/04 09:18:17;;;;;;;6.90;3.05;;;16.50;69.40;;;;;;4999428;28;20340;-55
2023/11/04 09:20:43;;;;;;;10.95;3.22;;;16.50;69.30;;;;;;4998595;28;20490;-56
2023/11/04 09:23:08;;;;;;;6.55;2.92;;;16.50;69.30;;;;;;5000060;28;20029;-54
2023/11/04 09:25:34;;;;;;;6.95;3.00;;;16.50;69.30;;;;;;4997113;28;20021;-57
2023/11/04 09:27:59;;;;;;;8.75;2.80;;;16.50;69.30;;;;;;4997766;28;21074;-57
2023/11/04 09:30:25;;;;;;;7.40;2.63;;;16.50;69.20;;;;;;4996238;28;20627;-57
2023/11/04 09:32:50;;;;;;;8.48;2.92;;;16.50;69.30;;;;;;4999775;28;20042;-55
2023/11/04 09:35:16;;;;;;;6.97;2.67;;;16.50;69.20;;;;;;4996413;28;20049;-53
2023/11/04 09:37:43;;;;;;;4.90;2.00;;;16.50;69.20;;;;;;5002280;28;20045;-56
2023/11/04 09:40:09;;;;;;;4.38;2.08;;;16.50;69.20;;;;;;4995360;28;20066;-57
2023/11/04 09:42:36;;;;;;;6.78;2.35;;;16.50;69.20;;;;;;5002698;28;20539;-57
2023/11/04 09:45:03;;;;;;;5.60;2.05;;;16.50;69.20;;;;;;4993294;28;20074;-56
2023/11/04 09:47:29;;;;;;;4.65;2.13;;;16.50;69.20;;;;;;5002696;28;20391;-53
2023/11/04 09:49:55;;;;;;;4.53;2.17;;;16.50;69.20;;;;;;4996014;28;20427;-54
2023/11/04 09:52:21;;;;;;;3.42;1.75;;;16.50;69.20;;;;;;4998470;28;20022;-56
2023/11/04 09:54:48;;;;;;;4.38;2.50;;;16.50;69.10;;;;;;4998320;28;20034;-53
2023/11/04 09:57:15;;;;;;;6.72;2.35;;;16.50;69.10;;;;;;4995734;28;20674;-55
2023/11/04 09:59:41;;;;;;;4.68;1.88;;;16.50;69.10;;;;;;4997502;28;20030;-61
2023/11/04 10:02:10;;;;;;;3.72;1.92;;;16.50;69.10;;;;;;4999155;28;20040;-55
2023/11/04 10:04:36;;;;;;;3.05;1.60;;;16.50;69.10;;;;;;4997836;28;20503;-55
2023/11/04 10:07:02;;;;;;;4.18;1.50;;;16.50;69.00;;;;;;4997819;28;20061;-53
2023/11/04 10:09:28;;;;;;;5.13;2.35;;;16.50;69.10;;;;;;4996635;28;20057;-54
2023/11/04 10:11:53;;;;;;;3.10;1.30;;;16.50;69.10;;;;;;4995164;28;20137;-56
2023/11/04 10:14:20;;;;;;;5.85;1.80;;;16.40;69.60;;;;;;5000645;28;20446;-56
2023/11/04 10:16:45;;;;;;;4.13;1.70;;;16.50;69.00;;;;;;4999139;28;20053;-55
2023/11/04 10:19:13;;;;;;;5.53;1.65;;;16.50;69.10;;;;;;4997135;28;20115;-62
2023/11/04 10:21:39;;;;;;;4.05;1.60;;;16.40;68.90;;;;;;4993789;28;20442;-55
2023/11/04 10:24:05;;;;;;;2.80;1.60;;;16.50;69.00;;;;;;4994899;28;20116;-54
2023/11/04 10:26:31;;;;;;;5.43;1.98;;;16.50;69.00;;;;;;4995046;28;20423;-57
2023/11/04 10:28:57;;;;;;;2.85;1.63;;;16.50;69.00;;;;;;4997758;28;20042;-54
2023/11/04 10:31:25;;;;;;;5.10;1.40;;;16.50;69.00;;;;;;4998206;28;20026;-51
2023/11/04 10:33:52;;;;;;;3.78;1.60;;;16.50;69.00;;;;;;4998639;28;20030;-55
2023/11/04 10:36:18;;;;;;;3.22;1.33;;;16.50;69.10;;;;;;4995342;28;20092;-54
2023/11/04 10:38:46;;;;;;;3.65;1.50;;;16.50;69.00;;;;;;5002363;28;20065;-56
2023/11/04 10:41:15;;;;;;;2.63;1.33;;;16.50;69.10;;;;;;4998960;28;20065;-56
2023/11/04 10:43:53;;;;;;;2.53;1.50;;;16.50;69.10;;;;;;5002112;28;20041;-58
2023/11/04 10:46:38;;;;;;;2.05;1.45;;;16.50;69.00;;;;;;5001286;28;20052;-55
2023/11/04 10:49:12;;;;;;;4.50;1.47;;;16.50;69.10;;;;;;5000147;28;20120;-53
2023/11/04 10:52:18;;;;;;;2.40;1.20;;;16.50;69.10;;;;;;4987563;28;20253;-54
2023/11/04 10:54:47;;;;;;;3.80;1.50;;;16.50;69.00;;;;;;4998791;28;20226;-54
2023/11/04 10:57:31;;;;;;;3.03;1.45;;;16.50;69.00;;;;;;5001408;28;20034;-55
2023/11/04 11:00:09;;;;;;;3.25;1.38;;;16.50;69.00;;;;;;4999945;28;20100;-53
2023/11/04 11:02:37;;;;;;;2.42;1.00;;;16.50;69.00;;;;;;5002831;28;20117;-55
2023/11/04 11:05:04;;;;;;;3.58;1.40;;;16.50;69.00;;;;;;5000422;28;20836;-55
2023/11/04 11:07:29;;;;;;;1.98;0.90;;;16.50;68.90;;;;;;5002773;28;20636;-55
2023/11/04 11:09:57;;;;;;;1.90;1.10;;;16.50;68.90;;;;;;5004257;28;20034;-55
2023/11/04 11:12:24;;;;;;;2.78;0.90;;;16.50;69.00;;;;;;5001088;28;20029;-56
2023/11/04 11:14:51;;;;;;;4.28;1.20;;;16.40;68.90;;;;;;5002141;28;20117;-57
2023/11/04 11:17:17;;;;;;;2.22;1.42;;;16.50;69.00;;;;;;5001637;28;20041;-56
2023/11/04 11:19:47;;;;;;;3.08;1.33;;;16.50;69.00;;;;;;4999969;28;20034;-58
2023/11/04 11:22:24;;;;;;;1.48;0.85;;;16.40;68.90;;;;;;4999724;28;20660;-55
2023/11/04 11:24:55;;;;;;;2.63;0.98;;;16.50;69.00;;;;;;5000794;28;20042;-56
2023/11/04 11:27:21;;;;;;;3.03;1.20;;;16.50;69.00;;;;;;5000722;28;20062;-55
2023/11/04 11:29:47;;;;;;;1.30;0.73;;;16.40;68.90;;;;;;5002316;28;20030;-55
2023/11/04 11:32:13;;;;;;;1.90;1.08;;;16.50;68.90;;;;;;4999614;28;20119;-55
2023/11/04 11:34:53;;;;;;;2.33;0.90;;;16.50;68.90;;;;;;5001907;28;20034;-57
2023/11/04 11:37:20;;;;;;;1.83;0.90;;;16.50;69.00;;;;;;4998846;28;20037;-59
2023/11/04 11:39:46;;;;;;;1.70;1.10;;;16.40;68.90;;;;;;4996574;28;20039;-59
2023/11/04 11:42:13;;;;;;;1.33;0.70;;;16.50;69.00;;;;;;4998880;28;20050;-58
2023/11/04 11:44:40;;;;;;;1.95;0.85;;;16.50;69.00;;;;;;5003440;28;20398;-58
2023/11/04 11:47:05;;;;;;;1.50;0.70;;;16.50;68.90;;;;;;5011887;28;20034;-57
2023/11/04 11:49:31;;;;;;;1.42;0.70;;;16.40;68.90;;;;;;5001923;28;20034;-55
2023/11/04 11:51:57;;;;;;;2.10;0.85;;;16.50;69.00;;;;;;4997358;28;20072;-56
2023/11/04 11:54:23;;;;;;;1.23;0.70;;;16.40;68.90;;;;;;4998745;28;20061;-56
2023/11/04 11:56:50;;;;;;;1.55;0.60;;;16.50;68.90;;;;;;4999288;28;20050;-57
2023/11/04 11:59:16;;;;;;;2.20;0.93;;;16.40;68.90;;;;;;4998946;28;20568;-58
2023/11/04 12:01:41;;;;;;;1.58;0.98;;;16.40;68.90;;;;;;4999547;28;20045;-58
2023/11/04 12:04:07;;;;;;;1.20;0.80;;;16.40;68.90;;;;;;4999368;28;20065;-51
2023/11/04 12:06:36;;;;;;;2.53;1.17;;;16.50;68.90;;;;;;4992205;28;20030;-54
2023/11/04 12:09:02;;;;;;;2.05;0.70;;;16.50;68.90;;;;;;5000327;28;20042;-56
2023/11/04 12:11:28;;;;;;;1.17;0.68;;;16.40;68.90;;;;;;5002901;28;20029;-57
2023/11/04 12:13:54;;;;;;;1.65;0.70;;;16.50;68.90;;;;;;4995876;28;20048;-57
2023/11/04 12:16:22;;;;;;;0.77;0.47;;;16.50;68.90;;;;;;4999756;28;20030;-58
2023/11/04 12:18:47;;;;;;;1.13;0.65;;;16.40;68.90;;;;;;4999733;28;20452;-58
2023/11/04 12:21:16;;;;;;;0.98;0.50;;;16.40;68.90;;;;;;4997353;28;20033;-57
2023/11/04 12:23:42;;;;;;;1.33;0.50;;;16.40;68.90;;;;;;4998137;28;20108;-55
2023/11/04 12:26:08;;;;;;;0.80;0.60;;;16.40;68.80;;;;;;4998410;28;20459;-53
2023/11/04 12:28:41;;;;;;;1.15;0.50;;;16.40;68.90;;;;;;4999215;28;20109;-57
2023/11/04 12:31:07;;;;;;;0.80;0.52;;;16.40;68.90;;;;;;4996977;28;20096;-56
2023/11/04 12:33:34;;;;;;;1.23;0.70;;;16.50;68.90;;;;;;4997610;28;20445;-58
2023/11/04 12:36:12;;;;;;;0.55;0.40;;;16.40;68.90;;;;;;4999987;28;20044;-56
2023/11/04 12:38:42;;;;;;;1.73;0.70;;;16.40;68.90;;;;;;4999711;28;20538;-58
2023/11/04 12:41:09;;;;;;;1.65;1.00;;;16.40;68.90;;;;;;4998528;28;20046;-58